createdAt,value
2023-04-30T00:02:24.064Z,1.25
2023-04-30T00:04:51.348Z,2.15
2023-04-30T00:07:18.588Z,2.10
2023-04-30T00:09:45.774Z,2.92
2023-04-30T00:12:12.977Z,1.60
2023-04-30T00:14:40.233Z,2.30
2023-04-30T00:17:07.404Z,2.63
2023-04-30T00:19:34.526Z,3.50
2023-04-30T00:22:01.695Z,2.08
2023-04-30T00:24:29.172Z,2.35
2023-04-30T00:26:56.394Z,1.40
2023-04-30T00:29:23.636Z,2.20
2023-04-30T00:31:51.054Z,1.27
2023-04-30T00:34:18.435Z,0.85
2023-04-30T00:36:45.674Z,1.90
2023-04-30T00:39:13.309Z,1.35
2023-04-30T00:41:40.668Z,2.85
2023-04-30T00:44:07.849Z,2.55
2023-04-30T00:46:35.029Z,2.20
2023-04-30T00:49:05.004Z,3.53
2023-04-30T00:51:33.372Z,2.97
2023-04-30T00:54:02.867Z,2.28
2023-04-30T00:56:32.979Z,2.45
2023-04-30T00:59:00.389Z,1.85
2023-04-30T01:01:31.956Z,2.47
2023-04-30T01:04:00.966Z,2.05
2023-04-30T01:06:28.741Z,1.17
2023-04-30T01:08:57.360Z,3.30
2023-04-30T01:11:24.511Z,2.88
2023-04-30T01:14:11.305Z,1.35
2023-04-30T01:16:44.153Z,1.27
2023-04-30T01:19:34.856Z,2.55
2023-04-30T01:22:04.239Z,1.17
2023-04-30T01:24:44.277Z,2.72
2023-04-30T01:27:25.406Z,1.00
2023-04-30T01:29:54.102Z,2.45
2023-04-30T01:32:21.459Z,1.77
2023-04-30T01:34:48.689Z,1.55
2023-04-30T01:37:25.009Z,1.92
2023-04-30T01:39:58.275Z,2.00
2023-04-30T01:42:39.293Z,2.35
2023-04-30T01:45:13.686Z,1.67
2023-04-30T01:47:47.109Z,1.92
2023-04-30T01:50:26.205Z,1.77
2023-04-30T01:52:54.776Z,1.00
2023-04-30T01:55:36.738Z,1.13
2023-04-30T01:58:05.924Z,2.50
2023-04-30T02:00:33.082Z,1.75
2023-04-30T02:03:00.588Z,1.42
2023-04-30T02:05:27.795Z,3.83
2023-04-30T02:07:55.181Z,1.67
2023-04-30T02:10:23.655Z,2.08
2023-04-30T02:12:51.073Z,1.98
2023-04-30T02:15:18.331Z,2.83
2023-04-30T02:17:45.581Z,1.48
2023-04-30T02:20:12.980Z,2.03
2023-04-30T02:22:40.289Z,1.35
2023-04-30T02:25:07.638Z,1.00
2023-04-30T02:27:34.885Z,1.77
2023-04-30T02:30:02.643Z,1.63
2023-04-30T02:32:30.160Z,2.20
2023-04-30T02:34:57.446Z,1.55
2023-04-30T02:37:24.886Z,1.75
2023-04-30T02:39:52.681Z,1.42
2023-04-30T02:42:19.972Z,2.13
2023-04-30T02:44:47.214Z,2.40
2023-04-30T02:47:14.405Z,0.75
2023-04-30T02:49:41.708Z,1.70
2023-04-30T02:52:09.938Z,2.42
2023-04-30T02:54:37.271Z,3.13
2023-04-30T02:57:04.838Z,1.58
2023-04-30T02:59:32.055Z,1.25
2023-04-30T03:01:59.225Z,0.93
2023-04-30T03:04:26.704Z,1.58
2023-04-30T03:06:53.979Z,2.22
2023-04-30T03:09:21.597Z,1.00
2023-04-30T03:11:48.848Z,1.00
2023-04-30T03:14:16.045Z,1.67
2023-04-30T03:16:43.418Z,1.77
2023-04-30T03:19:10.760Z,1.25
2023-04-30T03:21:37.929Z,1.33
2023-04-30T03:24:05.402Z,2.20
2023-04-30T03:26:32.622Z,1.40
2023-04-30T03:29:00.775Z,2.03
2023-04-30T03:31:28.054Z,1.00
2023-04-30T03:33:55.770Z,0.82
2023-04-30T03:36:22.982Z,2.47
2023-04-30T03:38:50.231Z,2.45
2023-04-30T03:41:17.485Z,1.67
2023-04-30T03:43:44.780Z,2.20
2023-04-30T03:46:12.090Z,0.82
2023-04-30T03:48:39.308Z,2.15
2023-04-30T03:51:06.484Z,2.03
2023-04-30T03:53:33.694Z,1.30
2023-04-30T03:56:01.115Z,0.65
2023-04-30T03:58:28.330Z,1.15
2023-04-30T04:00:55.566Z,1.13
2023-04-30T04:03:23.369Z,0.75
2023-04-30T04:05:50.658Z,2.05
2023-04-30T04:08:17.929Z,0.88
2023-04-30T04:10:45.144Z,1.40
2023-04-30T04:13:12.405Z,1.95
2023-04-30T04:15:39.696Z,1.40
2023-04-30T04:18:08.717Z,1.67
2023-04-30T04:20:36.357Z,1.45
2023-04-30T04:23:03.648Z,2.03
2023-04-30T04:25:30.828Z,1.45
2023-04-30T04:27:58.017Z,1.70
2023-04-30T04:30:25.281Z,1.20
2023-04-30T04:32:53.889Z,1.17
2023-04-30T04:35:21.257Z,1.05
2023-04-30T04:37:48.459Z,1.17
2023-04-30T04:40:15.628Z,1.15
2023-04-30T04:42:42.791Z,1.73
2023-04-30T04:45:11.116Z,1.05
2023-04-30T04:47:38.498Z,1.50
2023-04-30T04:50:05.848Z,2.03
2023-04-30T04:52:33.081Z,1.25
2023-04-30T04:55:00.361Z,1.13
2023-04-30T04:57:27.619Z,1.65
2023-04-30T04:59:55.042Z,1.27
2023-04-30T05:02:23.632Z,1.55
2023-04-30T05:04:51.167Z,0.85
2023-04-30T05:07:18.694Z,1.00
2023-04-30T05:09:48.650Z,1.00
2023-04-30T05:12:16.106Z,1.25
2023-04-30T05:14:43.966Z,1.85
2023-04-30T05:17:11.214Z,1.30
2023-04-30T05:19:38.368Z,1.52
2023-04-30T05:22:05.787Z,1.00
2023-04-30T05:24:33.125Z,1.70
2023-04-30T05:27:00.347Z,2.58
2023-04-30T05:29:27.521Z,2.60
2023-04-30T05:31:54.812Z,2.70
2023-04-30T05:34:22.091Z,1.70
2023-04-30T05:36:49.335Z,2.10
2023-04-30T05:39:16.524Z,2.85
2023-04-30T05:41:43.752Z,3.08
2023-04-30T05:44:10.972Z,2.63
2023-04-30T05:46:38.339Z,6.00
2023-04-30T05:49:05.532Z,3.33
2023-04-30T05:51:32.771Z,5.50
2023-04-30T05:54:00.463Z,4.70
2023-04-30T05:56:27.700Z,3.92
2023-04-30T05:58:55.203Z,6.60
2023-04-30T06:01:23.250Z,6.68
2023-04-30T06:03:50.725Z,5.05
2023-04-30T06:06:18.004Z,4.72
2023-04-30T06:08:45.648Z,4.60
2023-04-30T06:11:15.541Z,4.13
2023-04-30T06:13:42.802Z,4.38
2023-04-30T06:16:10.126Z,4.70
2023-04-30T06:18:37.399Z,3.47
2023-04-30T06:21:04.585Z,3.00
2023-04-30T06:23:31.884Z,4.13
2023-04-30T06:25:59.422Z,3.65
2023-04-30T06:28:26.882Z,3.38
2023-04-30T06:30:55.249Z,3.35
2023-04-30T06:33:22.603Z,3.03
2023-04-30T06:35:55.490Z,4.32
2023-04-30T06:38:22.716Z,3.40
2023-04-30T06:40:50.037Z,3.30
2023-04-30T06:43:18.353Z,2.75
2023-04-30T06:45:45.637Z,3.30
2023-04-30T06:48:13.570Z,3.47
2023-04-30T06:50:45.005Z,3.05
2023-04-30T06:53:12.816Z,2.88
2023-04-30T06:55:40.401Z,2.50
2023-04-30T06:58:08.102Z,2.67
2023-04-30T07:00:36.047Z,3.55
2023-04-30T07:03:04.540Z,2.90
2023-04-30T07:05:32.072Z,3.63
2023-04-30T07:07:59.845Z,2.75
2023-04-30T07:10:27.122Z,3.50
2023-04-30T07:12:55.309Z,3.75
2023-04-30T07:15:22.454Z,3.47
2023-04-30T07:17:49.774Z,3.17
2023-04-30T07:20:17.056Z,3.30
2023-04-30T07:22:46.004Z,3.17
2023-04-30T07:25:13.834Z,4.35
2023-04-30T07:27:41.373Z,3.78
2023-04-30T07:30:12.300Z,4.60
2023-04-30T07:32:41.173Z,3.72
2023-04-30T07:35:08.672Z,4.03
2023-04-30T07:37:36.296Z,3.15
2023-04-30T07:40:04.421Z,3.45
2023-04-30T07:42:31.670Z,3.78
2023-04-30T07:44:59.243Z,3.50
2023-04-30T07:47:27.079Z,3.83
2023-04-30T07:49:54.321Z,3.65
2023-04-30T07:52:21.646Z,3.00
2023-04-30T07:54:48.890Z,4.15
2023-04-30T07:57:16.214Z,3.30
2023-04-30T07:59:43.363Z,3.92
2023-04-30T08:02:10.773Z,3.28
2023-04-30T08:04:38.074Z,3.47
2023-04-30T08:07:05.330Z,3.42
2023-04-30T08:09:32.757Z,3.90
2023-04-30T08:12:00.203Z,3.42
2023-04-30T08:14:27.497Z,4.05
2023-04-30T08:16:54.883Z,3.13
2023-04-30T08:19:22.324Z,3.90
2023-04-30T08:21:49.548Z,3.90
2023-04-30T08:24:16.733Z,3.72
2023-04-30T08:26:44.400Z,3.70
2023-04-30T08:29:11.618Z,3.28
2023-04-30T08:31:38.988Z,2.90
2023-04-30T08:34:06.739Z,3.95
2023-04-30T08:36:33.968Z,2.78
2023-04-30T08:39:02.165Z,2.78
2023-04-30T08:41:33.960Z,3.22
2023-04-30T08:44:05.738Z,3.20
2023-04-30T08:46:35.550Z,3.30
2023-04-30T08:49:02.838Z,2.88
2023-04-30T08:51:32.105Z,2.75
2023-04-30T08:53:59.426Z,2.55
2023-04-30T08:56:26.817Z,3.60
2023-04-30T08:58:54.032Z,2.72
2023-04-30T09:01:21.316Z,3.22
2023-04-30T09:03:48.819Z,3.53
2023-04-30T09:06:17.071Z,3.63
2023-04-30T09:08:48.181Z,2.90
2023-04-30T09:11:24.272Z,2.70
2023-04-30T09:13:53.260Z,3.65
2023-04-30T09:16:21.125Z,3.55
2023-04-30T09:18:48.514Z,3.10
2023-04-30T09:21:15.800Z,3.67
2023-04-30T09:23:56.324Z,3.55
2023-04-30T09:26:28.229Z,3.42
2023-04-30T09:28:59.307Z,3.17
2023-04-30T09:31:26.885Z,3.38
2023-04-30T09:33:54.353Z,3.38
2023-04-30T09:36:21.627Z,3.85
2023-04-30T09:38:48.816Z,3.47
2023-04-30T09:41:26.850Z,3.00
2023-04-30T09:43:55.033Z,3.47
2023-04-30T09:46:23.021Z,3.78
2023-04-30T09:48:58.496Z,3.72
2023-04-30T09:51:27.025Z,3.50
2023-04-30T09:53:54.932Z,2.65
2023-04-30T09:56:23.220Z,3.33
2023-04-30T09:58:54.265Z,3.45
2023-04-30T10:01:27.649Z,4.05
2023-04-30T10:03:55.232Z,3.00
2023-04-30T10:06:22.797Z,4.75
2023-04-30T10:08:54.087Z,4.20
2023-04-30T10:11:21.931Z,3.03
2023-04-30T10:13:55.514Z,4.72
2023-04-30T10:16:30.080Z,3.60
2023-04-30T10:18:58.931Z,4.40
2023-04-30T10:21:27.545Z,3.05
2023-04-30T10:23:55.824Z,4.40
2023-04-30T10:26:24.617Z,3.53
2023-04-30T10:28:53.550Z,2.90
2023-04-30T10:31:21.526Z,3.72
2023-04-30T10:33:59.584Z,3.45
2023-04-30T10:36:41.181Z,3.53
2023-04-30T10:39:08.831Z,4.22
2023-04-30T10:41:36.051Z,3.55
2023-04-30T10:44:05.397Z,3.42
2023-04-30T10:46:35.385Z,4.57
2023-04-30T10:49:02.705Z,4.78
2023-04-30T10:51:46.019Z,4.93
2023-04-30T10:54:14.724Z,5.00
2023-04-30T10:56:41.990Z,5.30
2023-04-30T10:59:09.642Z,3.83
2023-04-30T11:01:55.744Z,4.57
2023-04-30T11:04:23.282Z,4.25
2023-04-30T11:06:56.520Z,4.28
2023-04-30T11:09:44.335Z,3.63
2023-04-30T11:12:15.340Z,4.47
2023-04-30T11:14:43.998Z,3.38
2023-04-30T11:17:22.530Z,3.15
2023-04-30T11:19:51.003Z,4.18
2023-04-30T11:22:24.753Z,3.60
2023-04-30T11:24:55.724Z,3.35
2023-04-30T11:27:29.905Z,4.20
2023-04-30T11:29:57.842Z,3.75
2023-04-30T11:32:27.013Z,3.72
2023-04-30T11:34:55.527Z,3.83
2023-04-30T11:37:31.038Z,3.33
2023-04-30T11:40:00.676Z,3.97
2023-04-30T11:42:30.166Z,2.50
2023-04-30T11:45:07.317Z,2.92
2023-04-30T11:47:40.770Z,3.72
2023-04-30T11:50:11.963Z,4.88
2023-04-30T11:52:39.835Z,3.75
2023-04-30T11:55:15.175Z,4.03
2023-04-30T11:57:43.766Z,3.78
2023-04-30T12:00:18.212Z,3.83
2023-04-30T12:02:46.269Z,3.20
2023-04-30T12:05:17.532Z,2.85
2023-04-30T12:07:51.848Z,3.35
2023-04-30T12:10:21.885Z,2.15
2023-04-30T12:12:51.954Z,2.88
2023-04-30T12:15:23.155Z,3.72
2023-04-30T12:17:50.484Z,3.33
2023-04-30T12:20:18.704Z,2.78
2023-04-30T12:22:46.014Z,2.78
2023-04-30T12:25:14.364Z,3.63
2023-04-30T12:27:42.315Z,3.80
2023-04-30T12:30:10.184Z,4.07
2023-04-30T12:32:40.431Z,2.83
2023-04-30T12:35:08.630Z,3.60
2023-04-30T12:37:35.934Z,3.22
2023-04-30T12:40:03.340Z,4.13
2023-04-30T12:42:37.106Z,3.72
2023-04-30T12:45:04.501Z,2.80
2023-04-30T12:47:31.859Z,2.95
2023-04-30T12:49:59.140Z,2.97
2023-04-30T12:52:26.900Z,2.55
2023-04-30T12:54:55.957Z,2.88
2023-04-30T12:57:23.207Z,3.92
2023-04-30T12:59:50.361Z,3.22
2023-04-30T13:02:17.604Z,1.67
2023-04-30T13:04:45.207Z,2.75
2023-04-30T13:07:12.586Z,1.92
2023-04-30T13:09:39.805Z,2.50
2023-04-30T13:12:07.475Z,2.58
2023-04-30T13:14:35.018Z,3.65
2023-04-30T13:17:05.016Z,3.33
2023-04-30T13:19:32.458Z,2.90
2023-04-30T13:22:00.482Z,3.42
2023-04-30T13:24:27.848Z,3.72
2023-04-30T13:26:55.494Z,3.10
2023-04-30T13:29:22.753Z,3.22
2023-04-30T13:31:50.053Z,2.63
2023-04-30T13:34:17.382Z,2.80
2023-04-30T13:36:46.689Z,2.17
2023-04-30T13:39:16.432Z,2.80
2023-04-30T13:41:43.711Z,2.63
2023-04-30T13:44:11.415Z,2.85
2023-04-30T13:46:38.707Z,2.38
2023-04-30T13:49:06.202Z,2.17
2023-04-30T13:51:34.738Z,3.28
2023-04-30T13:54:01.884Z,2.65
2023-04-30T13:56:29.556Z,3.00
2023-04-30T13:58:56.742Z,2.72
2023-04-30T14:01:24.320Z,2.58
2023-04-30T14:03:51.778Z,2.58
2023-04-30T14:06:19.099Z,3.10
2023-04-30T14:08:46.348Z,2.28
2023-04-30T14:11:13.543Z,1.85
2023-04-30T14:13:41.573Z,1.92
2023-04-30T14:16:08.976Z,3.22
2023-04-30T14:18:36.210Z,2.60
2023-04-30T14:21:03.387Z,1.80
2023-04-30T14:23:31.176Z,2.30
2023-04-30T14:25:58.459Z,2.13
2023-04-30T14:28:25.720Z,2.00
2023-04-30T14:30:52.943Z,2.42
2023-04-30T14:33:20.173Z,1.45
2023-04-30T14:35:47.491Z,2.13
2023-04-30T14:38:15.253Z,2.63
2023-04-30T14:40:44.408Z,2.00
2023-04-30T14:43:11.902Z,3.45
2023-04-30T14:45:40.426Z,1.95
2023-04-30T14:48:07.797Z,1.67
2023-04-30T14:50:35.124Z,1.00
2023-04-30T14:53:02.594Z,1.55
2023-04-30T14:55:29.819Z,1.92
2023-04-30T14:57:57.097Z,2.10
2023-04-30T15:00:24.708Z,3.05
2023-04-30T15:02:52.051Z,1.67
2023-04-30T15:05:19.414Z,1.20
2023-04-30T15:07:46.680Z,1.45
2023-04-30T15:10:13.811Z,2.33
2023-04-30T15:12:41.034Z,1.77
2023-04-30T15:15:08.695Z,1.42
2023-04-30T15:17:37.081Z,1.58
2023-04-30T15:20:04.921Z,1.10
2023-04-30T15:22:32.171Z,1.95
2023-04-30T15:24:59.666Z,2.58
2023-04-30T15:27:31.775Z,1.77
2023-04-30T15:29:59.734Z,1.80
2023-04-30T15:32:26.974Z,2.03
2023-04-30T15:34:55.215Z,1.30
2023-04-30T15:37:22.474Z,1.13
2023-04-30T15:39:50.008Z,1.35
2023-04-30T15:42:17.332Z,1.27
2023-04-30T15:44:44.568Z,1.20
2023-04-30T15:47:12.701Z,1.52
2023-04-30T15:49:39.900Z,1.98
2023-04-30T15:52:07.061Z,1.88
2023-04-30T15:54:34.267Z,1.75
2023-04-30T15:57:02.932Z,2.20
2023-04-30T15:59:30.218Z,1.65
2023-04-30T16:01:57.483Z,2.60
2023-04-30T16:04:24.827Z,1.77
2023-04-30T16:06:52.317Z,2.17
2023-04-30T16:09:19.838Z,2.00
2023-04-30T16:11:48.449Z,1.60
2023-04-30T16:14:15.703Z,1.73
2023-04-30T16:16:43.004Z,2.17
2023-04-30T16:19:12.315Z,1.27
2023-04-30T16:21:39.803Z,1.92
2023-04-30T16:24:07.738Z,2.67
2023-04-30T16:26:35.129Z,2.30
2023-04-30T16:29:02.700Z,1.98
2023-04-30T16:31:29.958Z,2.20
2023-04-30T16:33:57.338Z,1.83
2023-04-30T16:36:24.533Z,2.63
2023-04-30T16:38:51.906Z,2.78
2023-04-30T16:41:19.202Z,2.65
2023-04-30T16:43:46.614Z,3.13
2023-04-30T16:46:13.836Z,2.60
2023-04-30T16:48:41.069Z,2.95
2023-04-30T16:51:09.525Z,2.45
2023-04-30T16:53:36.763Z,3.08
2023-04-30T16:56:04.060Z,3.70
2023-04-30T16:58:31.187Z,2.38
2023-04-30T17:00:58.447Z,1.48
2023-04-30T17:03:25.928Z,1.80
2023-04-30T17:05:53.913Z,2.72
2023-04-30T17:08:21.786Z,2.15
2023-04-30T17:10:49.260Z,2.50
2023-04-30T17:13:16.572Z,2.70
2023-04-30T17:15:43.835Z,2.72
2023-04-30T17:18:12.532Z,2.13
2023-04-30T17:20:39.756Z,3.65
2023-04-30T17:23:07.745Z,3.28
2023-04-30T17:25:35.150Z,4.03
2023-04-30T17:28:02.359Z,3.78
2023-04-30T17:30:29.879Z,3.72
2023-04-30T17:33:00.454Z,3.05
2023-04-30T17:35:27.950Z,4.45
2023-04-30T17:37:57.214Z,4.90
2023-04-30T17:40:24.712Z,2.97
2023-04-30T17:42:52.391Z,3.38
2023-04-30T17:45:20.427Z,2.63
2023-04-30T17:47:48.067Z,3.22
2023-04-30T17:50:16.026Z,2.85
2023-04-30T17:52:43.517Z,3.22
2023-04-30T17:55:11.380Z,1.95
2023-04-30T17:57:38.911Z,2.90
2023-04-30T18:00:07.111Z,4.10
2023-04-30T18:02:34.484Z,2.20
2023-04-30T18:05:01.836Z,3.33
2023-04-30T18:07:29.546Z,3.50
2023-04-30T18:09:57.004Z,5.43
2023-04-30T18:12:24.984Z,3.72
2023-04-30T18:14:52.248Z,3.45
2023-04-30T18:17:19.450Z,3.22
2023-04-30T18:19:48.746Z,3.35
2023-04-30T18:22:16.024Z,3.28
2023-04-30T18:24:43.202Z,4.32
2023-04-30T18:27:13.213Z,4.85
2023-04-30T18:29:40.488Z,5.35
2023-04-30T18:32:07.737Z,3.60
2023-04-30T18:34:34.971Z,2.85
2023-04-30T18:37:02.220Z,2.83
2023-04-30T18:39:31.037Z,4.40
2023-04-30T18:41:58.219Z,5.43
2023-04-30T18:44:32.249Z,5.05
2023-04-30T18:46:59.479Z,3.60
2023-04-30T18:49:26.740Z,3.30
2023-04-30T18:51:55.317Z,3.85
2023-04-30T18:54:25.095Z,3.55
2023-04-30T18:56:52.359Z,5.38
2023-04-30T18:59:22.070Z,4.00
2023-04-30T19:01:52.309Z,5.32
2023-04-30T19:04:19.749Z,4.15
2023-04-30T19:06:54.494Z,3.58
2023-04-30T19:09:21.871Z,4.13
2023-04-30T19:11:49.176Z,4.28
2023-04-30T19:14:16.880Z,3.90
2023-04-30T19:16:44.785Z,3.80
2023-04-30T19:19:12.001Z,4.72
2023-04-30T19:21:39.354Z,4.95
2023-04-30T19:24:06.609Z,5.38
2023-04-30T19:26:34.755Z,4.32
2023-04-30T19:29:03.399Z,3.53
2023-04-30T19:31:30.784Z,5.43
2023-04-30T19:34:01.132Z,4.75
2023-04-30T19:36:28.642Z,3.55
2023-04-30T19:38:56.342Z,3.83
2023-04-30T19:41:23.626Z,3.72
2023-04-30T19:43:53.400Z,3.30
2023-04-30T19:46:21.084Z,3.75
2023-04-30T19:48:49.113Z,3.60
2023-04-30T19:51:16.615Z,3.85
2023-04-30T19:53:43.991Z,3.47
2023-04-30T19:56:11.309Z,5.32
2023-04-30T19:58:38.501Z,4.60
2023-04-30T20:01:05.864Z,4.55
2023-04-30T20:03:35.593Z,4.13
2023-04-30T20:06:04.628Z,6.18
2023-04-30T20:08:31.838Z,3.75
2023-04-30T20:11:00.763Z,3.55
2023-04-30T20:13:28.549Z,4.03
2023-04-30T20:15:55.925Z,3.08
2023-04-30T20:18:23.160Z,2.50
2023-04-30T20:20:50.396Z,3.40
2023-04-30T20:23:18.785Z,3.63
2023-04-30T20:25:46.820Z,2.67
2023-04-30T20:28:14.634Z,3.03
2023-04-30T20:30:42.734Z,2.40
2023-04-30T20:33:13.827Z,2.80
2023-04-30T20:35:41.752Z,3.00
2023-04-30T20:38:09.406Z,1.92
2023-04-30T20:40:40.080Z,2.63
2023-04-30T20:43:11.040Z,2.55
2023-04-30T20:45:38.386Z,2.78
2023-04-30T20:48:06.553Z,3.60
2023-04-30T20:50:34.512Z,2.35
2023-04-30T20:53:01.893Z,2.75
2023-04-30T20:55:29.299Z,1.77
2023-04-30T20:57:56.567Z,2.20
2023-04-30T21:00:23.785Z,2.47
2023-04-30T21:02:52.766Z,2.80
2023-04-30T21:05:20.078Z,3.17
2023-04-30T21:07:47.272Z,3.28
2023-04-30T21:10:14.645Z,3.35
2023-04-30T21:12:42.172Z,2.13
2023-04-30T21:15:09.715Z,2.80
2023-04-30T21:17:37.107Z,2.90
2023-04-30T21:20:04.436Z,2.90
2023-04-30T21:22:32.518Z,2.40
2023-04-30T21:24:59.790Z,2.90
2023-04-30T21:27:27.962Z,3.53
2023-04-30T21:29:55.354Z,2.17
2023-04-30T21:32:22.761Z,4.63
2023-04-30T21:34:50.095Z,5.93
2023-04-30T21:37:17.741Z,4.63
2023-04-30T21:39:44.986Z,5.30
2023-04-30T21:42:12.172Z,4.25
2023-04-30T21:44:39.963Z,4.80
2023-04-30T21:47:10.539Z,3.83
2023-04-30T21:49:37.751Z,3.30
2023-04-30T21:52:08.102Z,4.28
2023-04-30T21:54:35.442Z,4.15
2023-04-30T21:57:02.903Z,4.15
2023-04-30T21:59:30.356Z,3.38
2023-04-30T22:01:58.778Z,3.65
2023-04-30T22:04:26.846Z,4.47
2023-04-30T22:06:54.477Z,3.70
2023-04-30T22:09:21.837Z,4.40
2023-04-30T22:11:49.702Z,2.83
2023-04-30T22:14:17.070Z,4.88
2023-04-30T22:16:44.381Z,2.95
2023-04-30T22:19:11.600Z,4.35
2023-04-30T22:21:38.830Z,6.10
2023-04-30T22:24:06.980Z,3.95
2023-04-30T22:26:34.163Z,3.47
2023-04-30T22:29:01.358Z,5.32
2023-04-30T22:31:29.192Z,4.50
2023-04-30T22:33:56.451Z,5.22
2023-04-30T22:36:23.627Z,4.70
2023-04-30T22:38:50.892Z,4.65
2023-04-30T22:41:18.259Z,4.35
2023-04-30T22:43:49.028Z,3.92
2023-04-30T22:46:16.469Z,4.88
2023-04-30T22:48:44.436Z,4.50
2023-04-30T22:51:11.695Z,4.53
2023-04-30T22:53:39.070Z,3.58
2023-04-30T22:56:06.483Z,4.00
2023-04-30T22:58:33.757Z,3.65
2023-04-30T23:01:01.040Z,2.63
2023-04-30T23:03:28.380Z,3.80
2023-04-30T23:05:55.710Z,3.03
2023-04-30T23:08:22.989Z,3.00
2023-04-30T23:10:50.336Z,1.92
2023-04-30T23:13:18.472Z,3.53
2023-04-30T23:15:45.799Z,4.43
2023-04-30T23:18:13.139Z,3.20
2023-04-30T23:20:40.941Z,3.83
2023-04-30T23:23:08.212Z,4.13
2023-04-30T23:25:35.638Z,3.25
2023-04-30T23:28:04.137Z,3.85
2023-04-30T23:30:31.384Z,2.83
2023-04-30T23:32:58.639Z,4.20
2023-04-30T23:35:26.062Z,3.78
2023-04-30T23:37:53.236Z,3.08
2023-04-30T23:40:20.512Z,2.72
2023-04-30T23:42:47.740Z,2.55
2023-04-30T23:45:15.072Z,4.20
2023-04-30T23:47:42.345Z,4.32
2023-04-30T23:50:09.935Z,4.60
2023-04-30T23:52:37.084Z,4.03
2023-04-30T23:55:04.467Z,2.85
2023-04-30T23:57:31.718Z,3.60
2023-04-30T23:59:59.409Z,4.28
